sensor_id;sensor_type;location;lat;lon;timestamp;pressure;altitude;pressure_sealevel;temperature;humidity
75699;BME280;64313;51.018;13.742;2023-12-22T00:01:23;97122.34;;;5.05;66.71
75699;BME280;64313;51.018;13.742;2023-12-22T00:03:48;97137.41;;;5.05;66.22
75699;BME280;64313;51.018;13.742;2023-12-22T00:06:18;97136.84;;;5.03;66.85
75699;BME280;64313;51.018;13.742;2023-12-22T00:08:43;97127.28;;;5.02;67.22
75699;BME280;64313;51.018;13.742;2023-12-22T00:11:08;97119.34;;;5.02;66.79
75699;BME280;64313;51.018;13.742;2023-12-22T00:13:34;97118.56;;;5.01;66.37
75699;BME280;64313;51.018;13.742;2023-12-22T00:15:59;97115.13;;;5.01;66.91
75699;BME280;64313;51.018;13.742;2023-12-22T00:18:27;97124.31;;;4.98;66.15
75699;BME280;64313;51.018;13.742;2023-12-22T00:20:52;97129.38;;;5.00;66.79
75699;BME280;64313;51.018;13.742;2023-12-22T00:23:17;97122.47;;;4.99;66.50
75699;BME280;64313;51.018;13.742;2023-12-22T00:25:42;97122.72;;;4.97;66.63
75699;BME280;64313;51.018;13.742;2023-12-22T00:28:08;97117.44;;;4.97;66.90
75699;BME280;64313;51.018;13.742;2023-12-22T00:30:33;97129.84;;;4.97;66.99
75699;BME280;64313;51.018;13.742;2023-12-22T00:32:59;97127.41;;;4.95;66.45
75699;BME280;64313;51.018;13.742;2023-12-22T00:35:24;97130.06;;;4.95;65.95
75699;BME280;64313;51.018;13.742;2023-12-22T00:37:49;97130.31;;;4.94;66.13
75699;BME280;64313;51.018;13.742;2023-12-22T00:40:14;97129.75;;;4.92;66.23
75699;BME280;64313;51.018;13.742;2023-12-22T00:42:40;97135.81;;;4.92;66.15
75699;BME280;64313;51.018;13.742;2023-12-22T00:45:05;97121.25;;;4.89;66.15
75699;BME280;64313;51.018;13.742;2023-12-22T00:47:31;97128.94;;;4.91;66.69
75699;BME280;64313;51.018;13.742;2023-12-22T00:49:59;97121.81;;;4.92;66.46
75699;BME280;64313;51.018;13.742;2023-12-22T00:52:25;97106.22;;;4.90;65.75
75699;BME280;64313;51.018;13.742;2023-12-22T00:54:54;97115.75;;;4.91;66.29
75699;BME280;64313;51.018;13.742;2023-12-22T00:57:19;97140.31;;;4.92;65.47
75699;BME280;64313;51.018;13.742;2023-12-22T00:59:45;97135.81;;;4.92;66.49
75699;BME280;64313;51.018;13.742;2023-12-22T01:02:16;97129.75;;;4.92;65.45
75699;BME280;64313;51.018;13.742;2023-12-22T01:04:44;97138.47;;;4.92;65.79
75699;BME280;64313;51.018;13.742;2023-12-22T01:07:11;97158.78;;;4.92;65.00
75699;BME280;64313;51.018;13.742;2023-12-22T01:09:36;97154.31;;;4.92;65.18
75699;BME280;64313;51.018;13.742;2023-12-22T01:12:05;97160.16;;;4.94;65.02
75699;BME280;64313;51.018;13.742;2023-12-22T01:14:35;97160.75;;;4.96;64.70
75699;BME280;64313;51.018;13.742;2023-12-22T01:17:03;97159.69;;;4.97;65.48
75699;BME280;64313;51.018;13.742;2023-12-22T01:19:28;97167.38;;;4.99;64.61
75699;BME280;64313;51.018;13.742;2023-12-22T01:21:53;97171.88;;;4.98;64.71
75699;BME280;64313;51.018;13.742;2023-12-22T01:24:19;97177.16;;;4.98;64.43
75699;BME280;64313;51.018;13.742;2023-12-22T01:26:44;97163.94;;;4.98;65.60
75699;BME280;64313;51.018;13.742;2023-12-22T01:29:12;97163.94;;;4.98;65.09
75699;BME280;64313;51.018;13.742;2023-12-22T01:31:38;97188.50;;;4.99;65.10
75699;BME280;64313;51.018;13.742;2023-12-22T01:34:06;97174.81;;;5.02;65.34
75699;BME280;64313;51.018;13.742;2023-12-22T01:36:31;97185.63;;;5.00;64.66
75699;BME280;64313;51.018;13.742;2023-12-22T01:38:57;97187.22;;;5.01;64.94
75699;BME280;64313;51.018;13.742;2023-12-22T01:41:22;97199.88;;;4.99;65.02
75699;BME280;64313;51.018;13.742;2023-12-22T01:43:47;97191.97;;;4.99;65.17
75699;BME280;64313;51.018;13.742;2023-12-22T01:46:13;97194.59;;;4.99;64.27
75699;BME280;64313;51.018;13.742;2023-12-22T01:48:38;97184.03;;;4.99;64.88
75699;BME280;64313;51.018;13.742;2023-12-22T01:51:04;97190.34;;;4.98;64.08
75699;BME280;64313;51.018;13.742;2023-12-22T01:53:29;97198.53;;;4.97;64.42
75699;BME280;64313;51.018;13.742;2023-12-22T01:55:55;97195.88;;;4.97;64.55
75699;BME280;64313;51.018;13.742;2023-12-22T01:58:24;97197.72;;;4.96;64.31
75699;BME280;64313;51.018;13.742;2023-12-22T02:00:52;97204.25;;;4.94;65.38
75699;BME280;64313;51.018;13.742;2023-12-22T02:03:18;97186.81;;;4.93;64.79
75699;BME280;64313;51.018;13.742;2023-12-22T02:05:46;97216.91;;;4.92;64.86
75699;BME280;64313;51.018;13.742;2023-12-22T02:08:12;97222.41;;;4.90;65.95
75699;BME280;64313;51.018;13.742;2023-12-22T02:10:38;97236.63;;;4.89;67.66
75699;BME280;64313;51.018;13.742;2023-12-22T02:13:04;97228.38;;;4.85;67.42
75699;BME280;64313;51.018;13.742;2023-12-22T02:15:35;97220.91;;;4.82;67.15
75699;BME280;64313;51.018;13.742;2023-12-22T02:18:13;97240.09;;;4.78;68.10
75699;BME280;64313;51.018;13.742;2023-12-22T02:20:40;97245.03;;;4.74;68.58
75699;BME280;64313;51.018;13.742;2023-12-22T02:23:08;97241.84;;;4.72;68.05
75699;BME280;64313;51.018;13.742;2023-12-22T02:25:34;97237.00;;;4.69;68.19
75699;BME280;64313;51.018;13.742;2023-12-22T02:28:03;97242.75;;;4.66;67.63
75699;BME280;64313;51.018;13.742;2023-12-22T02:30:32;97237.72;;;4.65;68.10
75699;BME280;64313;51.018;13.742;2023-12-22T02:33:01;97234.47;;;4.62;68.23
75699;BME280;64313;51.018;13.742;2023-12-22T02:35:29;97233.09;;;4.60;68.27
75699;BME280;64313;51.018;13.742;2023-12-22T02:37:59;97224.63;;;4.58;67.92
75699;BME280;64313;51.018;13.742;2023-12-22T02:40:26;97225.06;;;4.55;68.09
75699;BME280;64313;51.018;13.742;2023-12-22T02:42:52;97224.75;;;4.51;68.17
75699;BME280;64313;51.018;13.742;2023-12-22T02:45:19;97237.34;;;4.49;68.15
75699;BME280;64313;51.018;13.742;2023-12-22T02:47:46;97226.22;;;4.47;68.64
75699;BME280;64313;51.018;13.742;2023-12-22T02:50:13;97245.97;;;4.45;69.13
75699;BME280;64313;51.018;13.742;2023-12-22T02:52:39;97248.25;;;4.41;68.06
75699;BME280;64313;51.018;13.742;2023-12-22T02:55:05;97231.38;;;4.42;68.17
75699;BME280;64313;51.018;13.742;2023-12-22T02:57:30;97244.81;;;4.41;67.95
75699;BME280;64313;51.018;13.742;2023-12-22T02:59:56;97232.88;;;4.38;68.09
75699;BME280;64313;51.018;13.742;2023-12-22T03:02:21;97228.63;;;4.37;67.89
75699;BME280;64313;51.018;13.742;2023-12-22T03:04:47;97228.63;;;4.37;68.30
75699;BME280;64313;51.018;13.742;2023-12-22T03:07:13;97206.94;;;4.35;67.23
75699;BME280;64313;51.018;13.742;2023-12-22T03:09:39;97205.91;;;4.36;66.83
75699;BME280;64313;51.018;13.742;2023-12-22T03:12:05;97208.53;;;4.36;67.36
75699;BME280;64313;51.018;13.742;2023-12-22T03:14:30;97205.66;;;4.38;67.50
75699;BME280;64313;51.018;13.742;2023-12-22T03:17:01;97205.91;;;4.36;67.17
75699;BME280;64313;51.018;13.742;2023-12-22T03:19:27;97204.88;;;4.37;66.73
75699;BME280;64313;51.018;13.742;2023-12-22T03:21:52;97200.19;;;4.39;66.58
75699;BME280;64313;51.018;13.742;2023-12-22T03:24:17;97208.66;;;4.41;66.96
75699;BME280;64313;51.018;13.742;2023-12-22T03:26:47;97199.72;;;4.42;66.31
75699;BME280;64313;51.018;13.742;2023-12-22T03:29:13;97208.44;;;4.43;66.98
75699;BME280;64313;51.018;13.742;2023-12-22T03:31:38;97193.63;;;4.42;65.70
75699;BME280;64313;51.018;13.742;2023-12-22T03:34:03;97202.13;;;4.44;66.25
75699;BME280;64313;51.018;13.742;2023-12-22T03:36:28;97197.88;;;4.43;64.85
75699;BME280;64313;51.018;13.742;2023-12-22T03:38:54;97194.00;;;4.45;65.69
75699;BME280;64313;51.018;13.742;2023-12-22T03:41:22;97189.50;;;4.46;65.35
75699;BME280;64313;51.018;13.742;2023-12-22T03:43:47;97196.41;;;4.47;65.27
75699;BME280;64313;51.018;13.742;2023-12-22T03:46:16;97189.50;;;4.46;64.62
75699;BME280;64313;51.018;13.742;2023-12-22T03:48:41;97191.91;;;4.47;64.82
75699;BME280;64313;51.018;13.742;2023-12-22T03:51:07;97209.34;;;4.48;65.00
75699;BME280;64313;51.018;13.742;2023-12-22T03:53:32;97206.72;;;4.48;65.38
75699;BME280;64313;51.018;13.742;2023-12-22T03:55:57;97212.78;;;4.49;65.08
75699;BME280;64313;51.018;13.742;2023-12-22T03:58:22;97211.56;;;4.51;64.49
75699;BME280;64313;51.018;13.742;2023-12-22T04:00:48;97202.59;;;4.52;64.50
75699;BME280;64313;51.018;13.742;2023-12-22T04:03:13;97202.34;;;4.54;63.99
75699;BME280;64313;51.018;13.742;2023-12-22T04:05:39;97200.28;;;4.56;63.92
75699;BME280;64313;51.018;13.742;2023-12-22T04:08:05;97201.06;;;4.56;64.07
75699;BME280;64313;51.018;13.742;2023-12-22T04:10:30;97199.25;;;4.57;64.70
75699;BME280;64313;51.018;13.742;2023-12-22T04:12:55;97209.59;;;4.58;63.90
75699;BME280;64313;51.018;13.742;2023-12-22T04:15:21;97197.44;;;4.57;62.98
75699;BME280;64313;51.018;13.742;2023-12-22T04:17:46;97205.91;;;4.59;63.88
75699;BME280;64313;51.018;13.742;2023-12-22T04:20:12;97200.63;;;4.59;63.09
75699;BME280;64313;51.018;13.742;2023-12-22T04:22:38;97190.88;;;4.60;62.79
75699;BME280;64313;51.018;13.742;2023-12-22T04:25:03;97201.19;;;4.61;63.95
75699;BME280;64313;51.018;13.742;2023-12-22T04:27:29;97196.16;;;4.60;63.32
75699;BME280;64313;51.018;13.742;2023-12-22T04:29:54;97199.84;;;4.59;63.57
75699;BME280;64313;51.018;13.742;2023-12-22T04:32:19;97205.13;;;4.59;63.63
75699;BME280;64313;51.018;13.742;2023-12-22T04:34:45;97209.34;;;4.60;64.41
75699;BME280;64313;51.018;13.742;2023-12-22T04:37:10;97208.00;;;4.57;63.64
75699;BME280;64313;51.018;13.742;2023-12-22T04:39:35;97215.06;;;4.57;64.02
75699;BME280;64313;51.018;13.742;2023-12-22T04:42:00;97218.53;;;4.57;64.30
75699;BME280;64313;51.018;13.742;2023-12-22T04:44:26;97208.44;;;4.54;64.17
75699;BME280;64313;51.018;13.742;2023-12-22T04:46:51;97214.75;;;4.53;64.34
75699;BME280;64313;51.018;13.742;2023-12-22T04:49:17;97217.63;;;4.52;64.04
75699;BME280;64313;51.018;13.742;2023-12-22T04:51:43;97193.28;;;4.50;63.59
75699;BME280;64313;51.018;13.742;2023-12-22T04:54:11;97202.22;;;4.49;63.73
75699;BME280;64313;51.018;13.742;2023-12-22T04:56:36;97195.59;;;4.46;64.89
75699;BME280;64313;51.018;13.742;2023-12-22T04:59:01;97198.69;;;4.43;64.41
75699;BME280;64313;51.018;13.742;2023-12-22T05:01:27;97205.00;;;4.42;63.85
75699;BME280;64313;51.018;13.742;2023-12-22T05:03:53;97203.94;;;4.43;64.11
75699;BME280;64313;51.018;13.742;2023-12-22T05:06:19;97202.13;;;4.44;64.55
75699;BME280;64313;51.018;13.742;2023-12-22T05:08:45;97180.44;;;4.42;63.97
75699;BME280;64313;51.018;13.742;2023-12-22T05:11:11;97204.19;;;4.42;64.06
75699;BME280;64313;51.018;13.742;2023-12-22T05:13:37;97213.72;;;4.43;65.19
75699;BME280;64313;51.018;13.742;2023-12-22T05:16:02;97205.22;;;4.41;64.71
75699;BME280;64313;51.018;13.742;2023-12-22T05:18:30;97206.25;;;4.40;65.39
75699;BME280;64313;51.018;13.742;2023-12-22T05:20:55;97196.75;;;4.39;65.86
75699;BME280;64313;51.018;13.742;2023-12-22T05:23:20;97193.06;;;4.40;66.25
75699;BME280;64313;51.018;13.742;2023-12-22T05:25:45;97189.63;;;4.39;65.94
75699;BME280;64313;51.018;13.742;2023-12-22T05:28:11;97204.88;;;4.37;66.26
75699;BME280;64313;51.018;13.742;2023-12-22T05:30:36;97211.19;;;4.36;65.39
75699;BME280;64313;51.018;13.742;2023-12-22T05:33:02;97202.94;;;4.32;65.53
75699;BME280;64313;51.018;13.742;2023-12-22T05:35:27;97221.63;;;4.31;66.51
75699;BME280;64313;51.018;13.742;2023-12-22T05:37:52;97228.72;;;4.30;66.52
75699;BME280;64313;51.018;13.742;2023-12-22T05:40:18;97204.66;;;4.27;66.29
75699;BME280;64313;51.018;13.742;2023-12-22T05:42:43;97215.66;;;4.24;66.86
75699;BME280;64313;51.018;13.742;2023-12-22T05:45:08;97220.34;;;4.22;66.54
75699;BME280;64313;51.018;13.742;2023-12-22T05:47:36;97212.91;;;4.19;66.82
75699;BME280;64313;51.018;13.742;2023-12-22T05:50:01;97212.09;;;4.18;67.05
75699;BME280;64313;51.018;13.742;2023-12-22T05:52:26;97221.25;;;4.16;66.94
75699;BME280;64313;51.018;13.742;2023-12-22T05:54:52;97202.25;;;4.14;66.18
75699;BME280;64313;51.018;13.742;2023-12-22T05:57:20;97216.22;;;4.14;67.08
75699;BME280;64313;51.018;13.742;2023-12-22T05:59:45;97218.88;;;4.14;66.90
75699;BME280;64313;51.018;13.742;2023-12-22T06:02:10;97223.34;;;4.14;66.53
75699;BME280;64313;51.018;13.742;2023-12-22T06:04:36;97225.38;;;4.12;67.06
75699;BME280;64313;51.018;13.742;2023-12-22T06:07:01;97232.50;;;4.11;66.56
75699;BME280;64313;51.018;13.742;2023-12-22T06:09:27;97242.25;;;4.11;67.27
75699;BME280;64313;51.018;13.742;2023-12-22T06:11:53;97238.81;;;4.10;66.60
75699;BME280;64313;51.018;13.742;2023-12-22T06:14:19;97246.72;;;4.10;66.71
75699;BME280;64313;51.018;13.742;2023-12-22T06:16:44;97250.38;;;4.09;66.92
75699;BME280;64313;51.018;13.742;2023-12-22T06:19:09;97269.66;;;4.10;66.56
75699;BME280;64313;51.018;13.742;2023-12-22T06:21:38;97247.75;;;4.09;66.95
75699;BME280;64313;51.018;13.742;2023-12-22T06:24:04;97253.50;;;4.06;66.78
75699;BME280;64313;51.018;13.742;2023-12-22T06:26:29;97253.50;;;4.06;66.76
75699;BME280;64313;51.018;13.742;2023-12-22T06:28:54;97229.97;;;4.04;66.70
75699;BME280;64313;51.018;13.742;2023-12-22T06:31:20;97246.56;;;4.05;66.79
75699;BME280;64313;51.018;13.742;2023-12-22T06:33:51;97245.78;;;4.04;66.16
75699;BME280;64313;51.018;13.742;2023-12-22T06:36:20;97239.13;;;4.02;66.60
75699;BME280;64313;51.018;13.742;2023-12-22T06:38:47;97246.25;;;4.01;66.12
75699;BME280;64313;51.018;13.742;2023-12-22T06:41:22;97236.72;;;4.00;66.22
75699;BME280;64313;51.018;13.742;2023-12-22T06:43:49;97245.88;;;3.98;65.86
75699;BME280;64313;51.018;13.742;2023-12-22T06:46:15;97236.94;;;3.99;64.83
75699;BME280;64313;51.018;13.742;2023-12-22T06:48:44;97245.69;;;3.99;65.16
75699;BME280;64313;51.018;13.742;2023-12-22T06:54:05;97242.22;;;3.99;65.33
75699;BME280;64313;51.018;13.742;2023-12-22T06:56:40;97230.06;;;3.98;65.56
75699;BME280;64313;51.018;13.742;2023-12-22T07:02:02;97233.72;;;3.97;64.88
75699;BME280;64313;51.018;13.742;2023-12-22T07:04:59;97224.22;;;3.96;65.34
75699;BME280;64313;51.018;13.742;2023-12-22T07:07:32;97209.44;;;3.95;65.11
75699;BME280;64313;51.018;13.742;2023-12-22T07:10:01;97219.75;;;3.96;64.73
75699;BME280;64313;51.018;13.742;2023-12-22T07:12:26;97216.53;;;3.94;65.19
75699;BME280;64313;51.018;13.742;2023-12-22T07:17:54;97242.31;;;3.92;65.76
75699;BME280;64313;51.018;13.742;2023-12-22T07:20:40;97248.84;;;3.90;65.53
75699;BME280;64313;51.018;13.742;2023-12-22T07:23:05;97252.53;;;3.89;65.44
75699;BME280;64313;51.018;13.742;2023-12-22T07:25:40;97268.56;;;3.87;65.15
75699;BME280;64313;51.018;13.742;2023-12-22T07:28:08;97257.44;;;3.85;65.72
75699;BME280;64313;51.018;13.742;2023-12-22T07:30:33;97281.63;;;3.82;65.65
75699;BME280;64313;51.018;13.742;2023-12-22T07:33:18;97288.50;;;3.83;66.43
75699;BME280;64313;51.018;13.742;2023-12-22T07:35:44;97286.66;;;3.84;66.38
75699;BME280;64313;51.018;13.742;2023-12-22T07:38:12;97277.94;;;3.83;66.80
75699;BME280;64313;51.018;13.742;2023-12-22T07:40:40;97309.34;;;3.85;66.38
75699;BME280;64313;51.018;13.742;2023-12-22T07:43:08;97305.91;;;3.84;66.57
75699;BME280;64313;51.018;13.742;2023-12-22T07:45:36;97297.19;;;3.84;68.07
75699;BME280;64313;51.018;13.742;2023-12-22T07:50:35;97302.13;;;3.80;69.74
75699;BME280;64313;51.018;13.742;2023-12-22T07:53:10;97315.75;;;3.77;70.83
75699;BME280;64313;51.018;13.742;2023-12-22T07:55:38;97326.16;;;3.72;71.98
75699;BME280;64313;51.018;13.742;2023-12-22T08:00:59;97345.78;;;3.58;73.21
75699;BME280;64313;51.018;13.742;2023-12-22T08:03:40;97384.34;;;3.52;73.49
75699;BME280;64313;51.018;13.742;2023-12-22T08:06:11;97385.00;;;3.47;74.41
75699;BME280;64313;51.018;13.742;2023-12-22T08:11:17;97414.13;;;3.34;74.03
75699;BME280;64313;51.018;13.742;2023-12-22T08:13:44;97416.03;;;3.27;74.34
75699;BME280;64313;51.018;13.742;2023-12-22T08:16:37;97431.09;;;3.20;74.24
75699;BME280;64313;51.018;13.742;2023-12-22T09:00:39;97431.91;;;2.64;78.47
75699;BME280;64313;51.018;13.742;2023-12-22T09:03:04;97446.50;;;2.66;78.53
75699;BME280;64313;51.018;13.742;2023-12-22T09:05:36;97448.50;;;2.71;78.09
75699;BME280;64313;51.018;13.742;2023-12-22T09:08:07;97445.66;;;2.72;78.06
75699;BME280;64313;51.018;13.742;2023-12-22T09:10:32;97460.19;;;2.75;77.96
75699;BME280;64313;51.018;13.742;2023-12-22T09:15:40;97463.44;;;2.77;78.92
75699;BME280;64313;51.018;13.742;2023-12-22T09:18:07;97496.63;;;2.78;78.93
75699;BME280;64313;51.018;13.742;2023-12-22T09:20:35;97458.75;;;2.79;77.69
75699;BME280;64313;51.018;13.742;2023-12-22T09:23:00;97481.41;;;2.80;77.71
75699;BME280;64313;51.018;13.742;2023-12-22T09:25:26;97475.19;;;2.75;77.04
75699;BME280;64313;51.018;13.742;2023-12-22T09:27:55;97494.84;;;2.72;76.96
75699;BME280;64313;51.018;13.742;2023-12-22T09:30:20;97493.88;;;2.66;76.71
75699;BME280;64313;51.018;13.742;2023-12-22T09:32:46;97490.44;;;2.66;76.99
75699;BME280;64313;51.018;13.742;2023-12-22T09:35:11;97495.28;;;2.62;77.94
75699;BME280;64313;51.018;13.742;2023-12-22T09:37:37;97485.00;;;2.61;77.85
75699;BME280;64313;51.018;13.742;2023-12-22T09:40:02;97476.50;;;2.59;77.91
75699;BME280;64313;51.018;13.742;2023-12-22T09:42:30;97482.56;;;2.59;77.48
75699;BME280;64313;51.018;13.742;2023-12-22T09:44:59;97479.72;;;2.61;78.37
75699;BME280;64313;51.018;13.742;2023-12-22T09:47:27;97486.19;;;2.65;78.88
75699;BME280;64313;51.018;13.742;2023-12-22T09:49:56;97478.66;;;2.68;78.84
75699;BME280;64313;51.018;13.742;2023-12-22T09:52:22;97483.50;;;2.71;78.92
75699;BME280;64313;51.018;13.742;2023-12-22T09:54:48;97497.44;;;2.79;79.15
75699;BME280;64313;51.018;13.742;2023-12-22T09:57:14;97482.63;;;2.84;77.58
75699;BME280;64313;51.018;13.742;2023-12-22T09:59:40;97496.75;;;2.90;76.87
75699;BME280;64313;51.018;13.742;2023-12-22T10:02:09;97483.75;;;2.95;76.60
75699;BME280;64313;51.018;13.742;2023-12-22T10:04:35;97472.59;;;2.99;76.43
75699;BME280;64313;51.018;13.742;2023-12-22T10:07:03;97474.34;;;3.06;75.64
75699;BME280;64313;51.018;13.742;2023-12-22T10:09:34;97467.66;;;3.10;75.58
75699;BME280;64313;51.018;13.742;2023-12-22T10:12:11;97483.59;;;3.15;74.80
75699;BME280;64313;51.018;13.742;2023-12-22T10:14:54;97482.16;;;3.19;74.47
75699;BME280;64313;51.018;13.742;2023-12-22T10:17:20;97499.94;;;3.23;72.89
75699;BME280;64313;51.018;13.742;2023-12-22T10:19:54;97490.00;;;3.25;72.83
75699;BME280;64313;51.018;13.742;2023-12-22T10:22:19;97494.25;;;3.26;71.60
75699;BME280;64313;51.018;13.742;2023-12-22T10:24:46;97519.72;;;3.33;72.46
75699;BME280;64313;51.018;13.742;2023-12-22T10:27:16;97524.34;;;3.37;72.13
75699;BME280;64313;51.018;13.742;2023-12-22T10:29:54;97539.31;;;3.43;71.70
75699;BME280;64313;51.018;13.742;2023-12-22T10:32:25;97523.06;;;3.46;70.92
75699;BME280;64313;51.018;13.742;2023-12-22T10:34:57;97533.97;;;3.50;70.43
75699;BME280;64313;51.018;13.742;2023-12-22T10:37:22;97536.16;;;3.53;71.05
75699;BME280;64313;51.018;13.742;2023-12-22T10:39:52;97548.31;;;3.54;70.58
75699;BME280;64313;51.018;13.742;2023-12-22T10:42:21;97528.25;;;3.53;69.29
75699;BME280;64313;51.018;13.742;2023-12-22T10:44:47;97534.34;;;3.53;70.42
75699;BME280;64313;51.018;13.742;2023-12-22T10:47:13;97539.59;;;3.53;70.34
75699;BME280;64313;51.018;13.742;2023-12-22T10:49:39;97538.00;;;3.52;70.02
75699;BME280;64313;51.018;13.742;2023-12-22T10:52:04;97528.25;;;3.53;71.30
75699;BME280;64313;51.018;13.742;2023-12-22T10:54:30;97526.44;;;3.53;70.98
75699;BME280;64313;51.018;13.742;2023-12-22T10:56:59;97525.84;;;3.51;70.76
75699;BME280;64313;51.018;13.742;2023-12-22T10:59:29;97515.75;;;3.48;70.87
75699;BME280;64313;51.018;13.742;2023-12-22T11:02:01;97539.47;;;3.48;71.54
75699;BME280;64313;51.018;13.742;2023-12-22T11:04:37;97550.19;;;3.47;72.68
75699;BME280;64313;51.018;13.742;2023-12-22T11:07:03;97540.34;;;3.42;73.51
75699;BME280;64313;51.018;13.742;2023-12-22T11:09:32;97535.13;;;3.36;74.90
75699;BME280;64313;51.018;13.742;2023-12-22T11:12:00;97531.50;;;3.30;75.31
75699;BME280;64313;51.018;13.742;2023-12-22T11:14:26;97518.97;;;3.25;75.79
75699;BME280;64313;51.018;13.742;2023-12-22T11:16:53;97513.31;;;3.22;76.43
75699;BME280;64313;51.018;13.742;2023-12-22T11:19:19;97507.91;;;3.17;76.88
75699;BME280;64313;51.018;13.742;2023-12-22T11:21:47;97516.84;;;3.16;77.01
75699;BME280;64313;51.018;13.742;2023-12-22T11:24:15;97509.13;;;3.14;77.77
75699;BME280;64313;51.018;13.742;2023-12-22T11:26:41;97498.41;;;3.16;77.53
75699;BME280;64313;51.018;13.742;2023-12-22T11:29:09;97498.19;;;3.17;76.79
75699;BME280;64313;51.018;13.742;2023-12-22T11:31:36;97481.13;;;3.20;77.71
75699;BME280;64313;51.018;13.742;2023-12-22T11:34:07;97478.28;;;3.21;77.69
75699;BME280;64313;51.018;13.742;2023-12-22T11:36:36;97459.41;;;3.24;78.19
75699;BME280;64313;51.018;13.742;2023-12-22T11:39:03;97476.59;;;3.27;77.59
75699;BME280;64313;51.018;13.742;2023-12-22T11:41:32;97482.50;;;3.29;77.08
75699;BME280;64313;51.018;13.742;2023-12-22T11:43:59;97477.78;;;3.31;76.73
75699;BME280;64313;51.018;13.742;2023-12-22T11:46:26;97466.00;;;3.34;75.96
75699;BME280;64313;51.018;13.742;2023-12-22T11:48:52;97456.88;;;3.36;75.85
75699;BME280;64313;51.018;13.742;2023-12-22T11:51:21;97455.63;;;3.39;75.54
75699;BME280;64313;51.018;13.742;2023-12-22T11:53:47;97462.28;;;3.41;75.22
75699;BME280;64313;51.018;13.742;2023-12-22T11:56:12;97452.34;;;3.43;75.08
75699;BME280;64313;51.018;13.742;2023-12-22T11:58:44;97436.09;;;3.46;74.69
75699;BME280;64313;51.018;13.742;2023-12-22T12:01:18;97426.16;;;3.48;74.67
75699;BME280;64313;51.018;13.742;2023-12-22T12:03:51;97440.72;;;3.51;74.84
75699;BME280;64313;51.018;13.742;2023-12-22T12:08:52;97441.69;;;3.57;74.06
75699;BME280;64313;51.018;13.742;2023-12-22T12:11:19;97438.59;;;3.60;74.13
75699;BME280;64313;51.018;13.742;2023-12-22T12:13:45;97434.50;;;3.64;73.42
75699;BME280;64313;51.018;13.742;2023-12-22T12:16:11;97427.19;;;3.66;73.92
75699;BME280;64313;51.018;13.742;2023-12-22T12:18:40;97431.81;;;3.70;73.84
75699;BME280;64313;51.018;13.742;2023-12-22T12:21:06;97426.31;;;3.72;72.77
75699;BME280;64313;51.018;13.742;2023-12-22T12:23:33;97424.84;;;3.76;73.31
75699;BME280;64313;51.018;13.742;2023-12-22T12:25:59;97424.41;;;3.79;73.37
75699;BME280;64313;51.018;13.742;2023-12-22T12:28:29;97423.75;;;3.84;73.16
75699;BME280;64313;51.018;13.742;2023-12-22T12:31:06;97410.13;;;3.87;73.37
75699;BME280;64313;51.018;13.742;2023-12-22T12:33:32;97407.84;;;3.90;72.77
75699;BME280;64313;51.018;13.742;2023-12-22T12:35:59;97415.34;;;3.93;73.06
75699;BME280;64313;51.018;13.742;2023-12-22T12:41:09;97418.31;;;3.97;73.00
75699;BME280;64313;51.018;13.742;2023-12-22T12:43:35;97460.28;;;3.98;71.47
75699;BME280;64313;51.018;13.742;2023-12-22T12:46:05;97457.63;;;3.98;71.90
75699;BME280;64313;51.018;13.742;2023-12-22T12:48:30;97453.41;;;3.97;72.04
75699;BME280;64313;51.018;13.742;2023-12-22T12:51:04;97450.41;;;3.94;72.67
75699;BME280;64313;51.018;13.742;2023-12-22T12:53:31;97449.69;;;3.87;72.89
75699;BME280;64313;51.018;13.742;2023-12-22T12:55:57;97460.06;;;3.82;73.53
75699;BME280;64313;51.018;13.742;2023-12-22T12:58:27;97453.84;;;3.76;73.70
75699;BME280;64313;51.018;13.742;2023-12-22T13:00:54;97444.97;;;3.70;74.21
75699;BME280;64313;51.018;13.742;2023-12-22T13:03:28;97454.56;;;3.65;74.10
75699;BME280;64313;51.018;13.742;2023-12-22T13:06:05;97452.59;;;3.60;74.65
75699;BME280;64313;51.018;13.742;2023-12-22T13:08:31;97458.94;;;3.52;74.86
75699;BME280;64313;51.018;13.742;2023-12-22T13:11:00;97450.69;;;3.49;75.22
75699;BME280;64313;51.018;13.742;2023-12-22T13:13:26;97444.44;;;3.43;76.07
75699;BME280;64313;51.018;13.742;2023-12-22T13:15:51;97449.34;;;3.40;75.90
75699;BME280;64313;51.018;13.742;2023-12-22T13:18:17;97447.38;;;3.35;76.39
75699;BME280;64313;51.018;13.742;2023-12-22T13:20:43;97457.53;;;3.32;76.64
75699;BME280;64313;51.018;13.742;2023-12-22T13:23:08;97465.88;;;3.29;77.20
75699;BME280;64313;51.018;13.742;2023-12-22T13:25:40;97461.81;;;3.26;76.98
75699;BME280;64313;51.018;13.742;2023-12-22T13:28:05;97480.72;;;3.23;76.81
75699;BME280;64313;51.018;13.742;2023-12-22T13:32:59;97479.97;;;3.16;77.90
75699;BME280;64313;51.018;13.742;2023-12-22T13:35:24;97475.34;;;3.11;77.79
75699;BME280;64313;51.018;13.742;2023-12-22T13:37:52;97481.22;;;3.07;78.30
75699;BME280;64313;51.018;13.742;2023-12-22T13:40:17;97469.50;;;3.03;77.65
75699;BME280;64313;51.018;13.742;2023-12-22T13:42:42;97485.97;;;2.98;77.75
75699;BME280;64313;51.018;13.742;2023-12-22T13:45:11;97489.00;;;2.95;78.06
75699;BME280;64313;51.018;13.742;2023-12-22T13:47:43;97479.13;;;2.90;78.50
75699;BME280;64313;51.018;13.742;2023-12-22T13:50:18;97501.19;;;2.89;78.91
75699;BME280;64313;51.018;13.742;2023-12-22T13:52:44;97485.84;;;2.86;78.10
75699;BME280;64313;51.018;13.742;2023-12-22T13:55:20;97478.97;;;2.85;78.59
75699;BME280;64313;51.018;13.742;2023-12-22T13:57:47;97484.44;;;2.84;79.81
75699;BME280;64313;51.018;13.742;2023-12-22T14:02:48;97502.03;;;2.83;79.00
75699;BME280;64313;51.018;13.742;2023-12-22T14:05:18;97501.47;;;2.81;79.41
75699;BME280;64313;51.018;13.742;2023-12-22T14:07:43;97476.75;;;2.82;79.05
75699;BME280;64313;51.018;13.742;2023-12-22T14:10:09;97493.56;;;2.81;79.43
75699;BME280;64313;51.018;13.742;2023-12-22T14:12:35;97497.81;;;2.82;79.67